page 5782 of 1004628 registered users

eBook PostsUsers

  1. 0quietsupply5 registered @ 2013-02-04 02:03:47, last login @ 2013-02-04 02:03:47
  2. 0voyagecurve51 registered @ 2013-02-04 02:04:29, last login @ 2013-02-04 02:04:29
  3. 0rabbi91suede registered @ 2013-02-04 02:05:33, last login @ 2013-02-04 02:05:33
  4. 0dressitaly38 registered @ 2013-02-04 02:05:40, last login @ 2013-02-04 02:05:40
  5. 0dibble0girdle registered @ 2013-02-04 02:05:46, last login @ 2013-02-04 02:05:46
  6. 0Dilkhush registered @ 2013-02-04 02:08:25, last login @ 2013-02-04 02:13:28
  7. 0celloweapon46 registered @ 2013-02-04 02:11:38, last login @ 2013-02-04 02:11:38
  8. 0browpath39 registered @ 2013-02-04 02:11:40, last login @ 2013-02-04 02:11:40
  9. 0lambact44 registered @ 2013-02-04 02:12:24, last login @ 2013-02-04 02:12:24
  10. 0lynxloan4 registered @ 2013-02-04 02:13:49, last login @ 2013-02-04 02:13:49
  11. 0cloudnephew94 registered @ 2013-02-04 02:14:27, last login @ 2013-02-04 02:14:27
  12. 0beret8milk registered @ 2013-02-04 02:16:55, last login @ 2013-02-04 02:16:55
  13. 0whorlyam67 registered @ 2013-02-04 02:18:36, last login @ 2013-02-04 02:37:05
  14. 0quince48silica registered @ 2013-02-04 02:19:16, last login @ 2013-02-04 02:19:16
  15. 0johnwillson registered @ 2013-02-04 02:19:37, last login @ 2013-02-04 02:19:37
  16. 0beef11cornet registered @ 2013-02-04 02:21:55, last login @ 2013-02-04 02:21:55
  17. 0spoonuse39 registered @ 2013-02-04 02:22:07, last login @ 2013-02-04 02:22:07
  18. 0maple6cork registered @ 2013-02-04 02:22:12, last login @ 2013-02-04 02:22:12
  19. 0carscrew25 registered @ 2013-02-04 02:22:43, last login @ 2013-02-04 02:55:22
  20. 0femalecafe2 registered @ 2013-02-04 02:24:24, last login @ 2013-02-04 02:24:24
  21. 0quilljames36 registered @ 2013-02-04 02:24:29, last login @ 2013-02-04 02:24:29
  22. 0harryxybbmuomh registered @ 2013-02-04 02:25:30, last login @ 2013-02-04 02:25:30
  23. 0Lorindepinto registered @ 2013-02-04 02:26:34, last login @ 2013-02-04 02:26:34
  24. 0Xochipilli registered @ 2013-02-04 02:26:56, last login @ 2013-02-04 02:26:56
  25. 0porchpeen21 registered @ 2013-02-04 02:30:18, last login @ 2013-02-04 02:30:18
  26. 0clutch73army registered @ 2013-02-04 02:33:03, last login @ 2013-02-04 02:33:03
  27. 0heaven57nephew registered @ 2013-02-04 02:34:14, last login @ 2013-02-04 02:34:14
  28. 0plainappeal30 registered @ 2013-02-04 02:34:14, last login @ 2013-02-04 02:34:14
  29. 0steinia registered @ 2013-02-04 02:34:24, last login @ 2013-02-04 02:54:19
  30. 0unclesneeze1 registered @ 2013-02-04 02:34:37, last login @ 2013-02-04 02:34:37
  31. 0dreamsusan85 registered @ 2013-02-04 02:34:47, last login @ 2013-02-04 02:34:47
  32. 0areafriend0 registered @ 2013-02-04 02:35:38, last login @ 2013-02-04 02:35:38
  33. 0candleounce0 registered @ 2013-02-04 02:36:09, last login @ 2013-02-04 02:36:09
  34. 0brow36twig registered @ 2013-02-04 02:36:47, last login @ 2013-02-04 02:44:46
  35. 0petcelery64 registered @ 2013-02-04 02:36:53, last login @ 2013-02-04 02:36:53
  36. 0greyarea40 registered @ 2013-02-04 02:37:04, last login @ 2013-02-04 02:37:04
  37. 0nurse44badger registered @ 2013-02-04 02:37:28, last login @ 2013-02-04 02:37:28
  38. 0zone6format registered @ 2013-02-04 02:38:14, last login @ 2013-02-04 02:38:14
  39. 0hontingsu registered @ 2013-02-04 02:38:38, last login @ 2013-02-04 02:38:38
  40. 0fleshswim7 registered @ 2013-02-04 02:39:15, last login @ 2013-02-04 02:39:15
  41. 0star1broker registered @ 2013-02-04 02:39:59, last login @ 2013-02-04 02:39:59
  42. 0cribtie95 registered @ 2013-02-04 02:40:25, last login @ 2013-02-04 02:40:25
  43. 0tulip9grease registered @ 2013-02-04 02:41:52, last login @ 2013-02-04 02:41:52
  44. 0lovecinema9 registered @ 2013-02-04 02:42:57, last login @ 2013-02-04 02:42:57
  45. 0ashred94 registered @ 2013-02-04 02:44:33, last login @ 2013-02-04 02:44:33
  46. 0server64tower registered @ 2013-02-04 02:44:34, last login @ 2013-02-04 02:44:34
  47. 0stewnic61 registered @ 2013-02-04 02:45:05, last login @ 2013-02-04 02:45:05
  48. 0gatepain2 registered @ 2013-02-04 02:45:18, last login @ 2013-02-04 02:45:18
  49. 0nepal19rate registered @ 2013-02-04 02:47:12, last login @ 2013-02-04 02:47:12
  50. 0brainvqcuvipvi registered @ 2013-02-04 02:51:17, last login @ 2013-02-04 02:51:17
  51. 0gray9fang registered @ 2013-02-04 02:51:28, last login @ 2013-02-04 02:51:28
  52. 0cddaisy16 registered @ 2013-02-04 02:53:59, last login @ 2013-02-04 02:53:59
  53. 0langefhxctqnwo registered @ 2013-02-04 02:55:07, last login @ 2013-02-04 02:55:07
  54. 0wrenchmaria2 registered @ 2013-02-04 02:58:31, last login @ 2013-02-04 02:58:31
  55. 0eratoast32 registered @ 2013-02-04 03:00:13, last login @ 2013-02-04 03:00:13
  56. 0dewscent32 registered @ 2013-02-04 03:00:43, last login @ 2013-02-04 03:00:43
  57. 0jelly45drum registered @ 2013-02-04 03:01:15, last login @ 2013-02-04 03:33:20
  58. 0DebiKath1949 registered @ 2013-02-04 03:03:22, last login @ 2013-02-04 03:47:06
  59. 0grayparcel68 registered @ 2013-02-04 03:06:56, last login @ 2013-02-04 03:06:56
  60. 0bun62tub registered @ 2013-02-04 03:07:17, last login @ 2013-02-04 03:07:17
  61. 0bomber4walrus registered @ 2013-02-04 03:08:06, last login @ 2013-02-04 03:08:06
  62. 0lunch6rabbit registered @ 2013-02-04 03:11:24, last login @ 2013-02-04 03:11:24
  63. 0pairolive6 registered @ 2013-02-04 03:13:53, last login @ 2013-02-04 03:13:53
  64. 0ton05gauge registered @ 2013-02-04 03:17:26, last login @ 2013-02-04 03:17:26
  65. 0penciltime91 registered @ 2013-02-04 03:17:50, last login @ 2013-02-04 03:57:45
  66. 0hockey7column registered @ 2013-02-04 03:17:51, last login @ 2013-02-04 03:17:51
  67. 0hatpull2 registered @ 2013-02-04 03:18:35, last login @ 2013-02-04 03:18:35
  68. 0seasoda29 registered @ 2013-02-04 03:19:23, last login @ 2013-02-04 03:19:23
  69. 0riverearth2 registered @ 2013-02-04 03:20:59, last login @ 2013-02-04 03:20:59
  70. 0musicbetty03 registered @ 2013-02-04 03:22:11, last login @ 2013-02-04 03:22:11
  71. 0zephyrtemper38 registered @ 2013-02-04 03:22:42, last login @ 2013-02-04 03:22:42
  72. 0catsupquill7 registered @ 2013-02-04 03:23:05, last login @ 2013-02-04 03:23:05
  73. 0opuncija registered @ 2013-02-04 03:23:34, last login @ 2013-02-04 03:31:42
  74. 0lathe1cello registered @ 2013-02-04 03:23:51, last login @ 2013-02-04 03:23:51
  75. 0stemfridge2 registered @ 2013-02-04 03:23:55, last login @ 2013-02-04 03:23:55
  76. 0guest2339 registered @ 2013-02-04 03:24:56, last login @ 2013-02-04 03:24:56
  77. 0ashnest39 registered @ 2013-02-04 03:25:28, last login @ 2013-02-04 03:25:28
  78. 0linenmeal4 registered @ 2013-02-04 03:25:38, last login @ 2013-02-04 03:56:50
  79. 0puma65toilet registered @ 2013-02-04 03:26:22, last login @ 2013-02-04 03:26:22
  80. 0nurse02grape registered @ 2013-02-04 03:27:52, last login @ 2013-02-04 03:27:52
  81. 0reward92doubt registered @ 2013-02-04 03:29:24, last login @ 2013-02-04 03:29:24
  82. 0poland6author registered @ 2013-02-04 03:30:35, last login @ 2013-02-04 03:30:35
  83. 0canvas49loss registered @ 2013-02-04 03:30:35, last login @ 2013-02-04 03:30:35
  84. 0landshake06 registered @ 2013-02-04 03:31:57, last login @ 2013-02-04 03:31:57
  85. 0rainscreen55 registered @ 2013-02-04 03:32:48, last login @ 2013-02-04 03:32:48
  86. 0landepoch39 registered @ 2013-02-04 03:34:15, last login @ 2013-02-04 03:34:15
  87. 0lunchmotion01 registered @ 2013-02-04 03:34:39, last login @ 2013-02-04 03:34:39
  88. 0brabottle92 registered @ 2013-02-04 03:35:14, last login @ 2013-02-04 03:35:14
  89. 0soccer5spike registered @ 2013-02-04 03:37:23, last login @ 2013-02-04 03:37:23
  90. 0cirrus43ring registered @ 2013-02-04 03:38:28, last login @ 2013-02-04 03:38:28
  91. 0coughheaven8 registered @ 2013-02-04 03:40:49, last login @ 2013-02-04 03:40:49
  92. 0cup7syrup registered @ 2013-02-04 03:41:45, last login @ 2013-02-04 03:41:45
  93. 0ramongw73 registered @ 2013-02-04 03:42:26, last login @ 2013-02-04 03:42:26
  94. 0colony20skin registered @ 2013-02-04 03:43:26, last login @ 2013-02-04 03:43:26
  95. 0peonyclerk7 registered @ 2013-02-04 03:44:31, last login @ 2013-02-04 03:44:31
  96. 0crayonbottom7 registered @ 2013-02-04 03:44:43, last login @ 2013-02-04 03:44:43
  97. 0jeans80peony registered @ 2013-02-04 03:45:23, last login @ 2013-02-04 03:45:23
  98. 0babyserver16 registered @ 2013-02-04 03:46:49, last login @ 2013-02-04 03:46:49
  99. 0key5butter registered @ 2013-02-04 03:47:16, last login @ 2013-02-04 03:47:16
  100. 0fallpin94 registered @ 2013-02-04 03:49:28, last login @ 2013-02-04 03:49:28
  101. 0gallon2bumper registered @ 2013-02-04 03:49:40, last login @ 2013-02-04 03:49:40

More...

[5792] [5791] [5790] [5789] [5788] [5787] [5786] [5785] [5784] [5783] [5782] [5781] [5780] [5779] [5778] [5777] [5776] [5775] [5774] [5773] ...[1]
Back to Top